createdAt,value
2023-10-05T00:02:26.323Z,101010.75
2023-10-05T00:05:29.297Z,101012.63
2023-10-05T00:08:36.904Z,101004.78
2023-10-05T00:11:40.563Z,101013.28
2023-10-05T00:14:43.338Z,101018.03
2023-10-05T00:17:47.845Z,101017.94
2023-10-05T00:20:50.806Z,101029.87
2023-10-05T00:23:58.422Z,101033.09
2023-10-05T00:27:01.029Z,101036.78
2023-10-05T00:30:06.293Z,101043.47
2023-10-05T00:33:12.795Z,101041.63
2023-10-05T00:36:15.742Z,101041.59
2023-10-05T00:39:21.140Z,101033.31
2023-10-05T00:42:24.574Z,101031.81
2023-10-05T00:45:32.465Z,101031.41
2023-10-05T00:48:42.805Z,101026.94
2023-10-05T00:51:56.213Z,101029.03
2023-10-05T00:55:07.401Z,101018.56
2023-10-05T00:58:16.203Z,101020.72
2023-10-05T01:01:24.826Z,101018.81
2023-10-05T01:04:36.050Z,101020.53
2023-10-05T01:07:51.014Z,101015.81
2023-10-05T01:10:55.621Z,101021.84
2023-10-05T01:14:01.662Z,101013.28
2023-10-05T01:17:05.249Z,101014.13
2023-10-05T01:20:17.998Z,101019.66
2023-10-05T01:23:30.092Z,101013.34
2023-10-05T01:26:38.485Z,101009.38
2023-10-05T01:29:41.397Z,101009.28
2023-10-05T01:32:46.086Z,101007.69
2023-10-05T01:35:49.535Z,101018.75
2023-10-05T01:38:55.822Z,101019.69
2023-10-05T01:42:00.954Z,101026.03
2023-10-05T01:45:07.221Z,101019.16
2023-10-05T01:48:15.609Z,101018.56
2023-10-05T01:51:25.112Z,101017.66
2023-10-05T01:54:30.838Z,101019.44
2023-10-05T01:57:33.840Z,101013.78
2023-10-05T02:00:40.417Z,101007.84
2023-10-05T02:03:43.501Z,101011.91
2023-10-05T02:06:50.810Z,101012.81
2023-10-05T02:09:54.535Z,101013.31
2023-10-05T02:12:57.206Z,101008.97
2023-10-05T02:16:01.266Z,101010.56
2023-10-05T02:19:08.748Z,101008.78
2023-10-05T02:22:15.181Z,101014.91
2023-10-05T02:25:23.392Z,101009.34
2023-10-05T02:28:28.909Z,100998.16
2023-10-05T02:31:31.628Z,100997.38
2023-10-05T02:34:38.769Z,100991.06
2023-10-05T02:37:41.430Z,100986.37
2023-10-05T02:40:47.961Z,100986.56
2023-10-05T02:43:53.696Z,100976.37
2023-10-05T02:46:57.482Z,100974.75
2023-10-05T02:50:06.835Z,100970.81
2023-10-05T02:53:09.764Z,100971.09
2023-10-05T02:56:28.132Z,100972.13
2023-10-05T02:59:31.068Z,100971.00
2023-10-05T03:02:38.476Z,100980.50
2023-10-05T03:05:43.190Z,100971.75
2023-10-05T03:08:54.945Z,100973.81
2023-10-05T03:11:57.993Z,100979.81
2023-10-05T03:15:05.988Z,100971.19
2023-10-05T03:18:09.158Z,100975.03
2023-10-05T03:21:15.624Z,100977.97
2023-10-05T03:24:20.362Z,100977.13
2023-10-05T03:27:23.922Z,100980.41
2023-10-05T03:30:31.743Z,100976.16
2023-10-05T03:33:37.358Z,100985.91
2023-10-05T03:36:40.331Z,100983.81
2023-10-05T03:39:53.372Z,100982.09
2023-10-05T03:42:59.801Z,100978.38
2023-10-05T03:46:08.141Z,100991.88
2023-10-05T03:49:11.082Z,100990.59
2023-10-05T03:52:14.532Z,100994.84
2023-10-05T03:55:20.565Z,100991.59
2023-10-05T03:58:23.728Z,101003.94
2023-10-05T04:01:27.299Z,101003.97
2023-10-05T04:04:36.199Z,101000.38
2023-10-05T04:07:41.067Z,100997.00
2023-10-05T04:10:48.891Z,100992.25
2023-10-05T04:13:52.261Z,100980.47
2023-10-05T04:16:55.386Z,100990.38
2023-10-05T04:19:58.727Z,100990.59
2023-10-05T04:23:04.898Z,100986.34
2023-10-05T04:26:10.052Z,100992.59
2023-10-05T04:29:13.703Z,100988.81
2023-10-05T04:32:16.821Z,101000.50
2023-10-05T04:35:24.517Z,101003.59
2023-10-05T04:38:27.398Z,101006.13
2023-10-05T04:41:32.471Z,101002.66
2023-10-05T04:44:35.522Z,101000.09
2023-10-05T04:47:39.128Z,101007.91
2023-10-05T04:50:45.018Z,101013.06
2023-10-05T04:53:49.488Z,101008.78
2023-10-05T04:56:55.446Z,101017.13
2023-10-05T05:00:21.469Z,101024.59
2023-10-05T05:03:27.397Z,101026.75
2023-10-05T05:06:33.417Z,101032.41
2023-10-05T05:09:43.517Z,101037.31
2023-10-05T05:12:47.389Z,101035.06
2023-10-05T05:15:56.310Z,101032.41
2023-10-05T05:18:59.774Z,101031.50
2023-10-05T05:22:04.118Z,101038.16
2023-10-05T05:25:10.412Z,101036.59
2023-10-05T05:28:12.973Z,101045.81
2023-10-05T05:31:17.600Z,101043.06
2023-10-05T05:34:20.805Z,101051.19
2023-10-05T05:37:30.728Z,101030.91
2023-10-05T05:40:37.994Z,101035.12
2023-10-05T05:43:41.112Z,101038.13
2023-10-05T05:46:44.853Z,101039.19
2023-10-05T05:49:48.129Z,101038.41
2023-10-05T05:52:54.965Z,101042.53
2023-10-05T05:56:02.402Z,101037.75
2023-10-05T05:59:05.342Z,101034.97
2023-10-05T06:02:09.717Z,101040.13
2023-10-05T06:05:12.701Z,101040.53
2023-10-05T06:08:17.969Z,101040.19
2023-10-05T06:11:20.738Z,101045.91
2023-10-05T06:14:23.344Z,101041.88
2023-10-05T06:17:26.283Z,101038.84
2023-10-05T06:20:29.180Z,101040.50
2023-10-05T06:23:35.422Z,101037.13
2023-10-05T06:26:39.481Z,101036.34
2023-10-05T06:29:42.940Z,101032.63
2023-10-05T06:32:45.610Z,101040.81
2023-10-05T06:35:48.496Z,101041.81
2023-10-05T06:38:51.072Z,101025.03
2023-10-05T06:41:54.636Z,101031.56
2023-10-05T06:44:59.477Z,101035.34
2023-10-05T06:48:05.072Z,101036.75
2023-10-05T06:51:08.466Z,101035.66
2023-10-05T06:54:11.606Z,101047.59
2023-10-05T06:57:14.718Z,101045.06
2023-10-05T07:00:22.658Z,101038.19
2023-10-05T07:03:25.433Z,101036.84
2023-10-05T07:06:33.763Z,101029.50
2023-10-05T07:09:36.244Z,101037.19
2023-10-05T07:12:48.931Z,101041.63
2023-10-05T07:15:51.672Z,101036.91
2023-10-05T07:18:55.856Z,101031.00
2023-10-05T07:21:58.506Z,101039.56
2023-10-05T07:25:01.635Z,101041.78
2023-10-05T07:28:15.149Z,101044.00
2023-10-05T07:31:18.482Z,101044.47
2023-10-05T07:34:21.357Z,101041.47
2023-10-05T07:37:25.083Z,101034.56
2023-10-05T07:40:29.089Z,101043.91
2023-10-05T07:43:33.493Z,101035.31
2023-10-05T07:46:39.902Z,101039.97
2023-10-05T07:49:43.013Z,101035.00
2023-10-05T07:52:46.274Z,101034.34
2023-10-05T07:55:49.404Z,101045.69
2023-10-05T07:58:52.025Z,101044.41
2023-10-05T08:01:56.379Z,101044.75
2023-10-05T08:04:59.532Z,101045.44
2023-10-05T08:08:06.260Z,101040.25
2023-10-05T08:11:09.376Z,101047.59
2023-10-05T08:14:15.028Z,101054.97
2023-10-05T08:17:18.802Z,101051.75
2023-10-05T08:20:25.823Z,101053.31
2023-10-05T08:23:31.613Z,101051.81
2023-10-05T08:26:34.301Z,101046.34
2023-10-05T08:29:40.808Z,101055.91
2023-10-05T08:32:43.469Z,101054.88
2023-10-05T08:35:46.255Z,101053.38
2023-10-05T08:38:55.217Z,101045.38
2023-10-05T08:42:08.248Z,101043.97
2023-10-05T08:45:13.482Z,101048.13
2023-10-05T08:48:21.038Z,101045.19
2023-10-05T08:51:26.054Z,101040.44
2023-10-05T08:54:29.770Z,101047.72
2023-10-05T08:57:32.202Z,101042.66
2023-10-05T09:00:41.361Z,101043.72
2023-10-05T09:03:43.941Z,101044.88
2023-10-05T09:06:53.997Z,101043.59
2023-10-05T09:09:56.617Z,101038.72
2023-10-05T09:13:00.011Z,101042.56
2023-10-05T09:16:07.862Z,101038.13
2023-10-05T09:19:30.674Z,101029.41
2023-10-05T09:22:48.956Z,101027.53
2023-10-05T09:25:51.897Z,101033.84
2023-10-05T09:29:13.886Z,101021.50
2023-10-05T09:32:23.731Z,101020.19
2023-10-05T09:35:29.317Z,101017.56
2023-10-05T09:38:41.696Z,101017.91
2023-10-05T09:41:51.200Z,101020.63
2023-10-05T09:44:55.365Z,101017.22
2023-10-05T09:48:03.640Z,101016.94
2023-10-05T09:51:12.172Z,101002.91
2023-10-05T09:54:16.600Z,101009.16
2023-10-05T09:57:21.932Z,101000.97
2023-10-05T10:00:39.213Z,101005.44
2023-10-05T10:03:49.812Z,101009.34
2023-10-05T10:06:54.574Z,100996.41
2023-10-05T10:09:58.078Z,100997.94
2023-10-05T10:13:01.718Z,100993.47
2023-10-05T10:16:24.504Z,100980.41
2023-10-05T10:19:28.706Z,100975.53
2023-10-05T10:22:48.291Z,100968.19
2023-10-05T10:25:51.758Z,100974.59
2023-10-05T10:29:11.261Z,100970.75
2023-10-05T10:32:24.160Z,100967.94
2023-10-05T10:35:30.262Z,100960.84
2023-10-05T10:38:33.148Z,100951.84
2023-10-05T10:42:02.370Z,100944.69
2023-10-05T10:45:13.814Z,100941.25
2023-10-05T10:48:23.580Z,100938.81
2023-10-05T10:51:34.051Z,100925.59
2023-10-05T10:54:46.821Z,100928.06
2023-10-05T10:57:54.360Z,100911.94
2023-10-05T11:01:01.204Z,100906.66
2023-10-05T11:04:05.934Z,100906.06
2023-10-05T11:07:09.264Z,100901.81
2023-10-05T11:10:21.955Z,100907.91
2023-10-05T11:13:25.774Z,100896.31
2023-10-05T11:16:45.352Z,100899.38
2023-10-05T11:19:50.286Z,100889.75
2023-10-05T11:23:04.609Z,100889.94
2023-10-05T11:26:30.201Z,100888.69
2023-10-05T11:29:45.825Z,100881.78
2023-10-05T11:34:06.119Z,100878.91
2023-10-05T11:36:34.795Z,100876.34
2023-10-05T11:39:41.249Z,100873.31
2023-10-05T11:42:44.052Z,100862.53
2023-10-05T11:46:24.727Z,100868.94
2023-10-05T11:49:32.261Z,100858.31
2023-10-05T11:52:39.800Z,100853.16
2023-10-05T11:55:42.653Z,100848.44
2023-10-05T11:58:49.132Z,100846.47
2023-10-05T12:01:53.258Z,100847.88
2023-10-05T12:04:56.635Z,100837.09
2023-10-05T12:08:01.232Z,100837.53
2023-10-05T12:11:04.314Z,100825.72
2023-10-05T12:14:07.091Z,100812.69
2023-10-05T12:17:11.380Z,100818.91
2023-10-05T12:20:15.065Z,100823.37
2023-10-05T12:23:18.768Z,100808.50
2023-10-05T12:26:22.402Z,100810.59
2023-10-05T12:29:25.305Z,100810.69
2023-10-05T12:32:28.730Z,100806.28
2023-10-05T12:35:31.694Z,100804.91
2023-10-05T12:38:34.194Z,100797.53
2023-10-05T12:41:43.015Z,100794.78
2023-10-05T12:44:46.821Z,100779.63
2023-10-05T12:47:59.951Z,100777.56
2023-10-05T12:51:02.780Z,100778.56
2023-10-05T12:54:09.985Z,100782.87
2023-10-05T12:57:21.540Z,100777.09
2023-10-05T13:00:42.903Z,100769.84
2023-10-05T13:03:45.790Z,100771.59
2023-10-05T13:06:48.674Z,100767.38
2023-10-05T13:10:01.341Z,100763.81
2023-10-05T13:13:11.697Z,100767.47
2023-10-05T13:16:22.318Z,100767.22
2023-10-05T13:19:25.885Z,100760.31
2023-10-05T13:22:30.304Z,100755.75
2023-10-05T13:25:34.893Z,100757.47
2023-10-05T13:28:37.614Z,100738.41
2023-10-05T13:31:40.740Z,100752.22
2023-10-05T13:34:47.355Z,100732.25
2023-10-05T13:37:50.451Z,100732.91
2023-10-05T13:41:13.170Z,100732.06
2023-10-05T13:44:15.986Z,100733.25
2023-10-05T13:47:19.354Z,100726.25
2023-10-05T13:50:24.341Z,100731.78
2023-10-05T13:53:27.046Z,100723.81
2023-10-05T13:56:32.135Z,100726.69
2023-10-05T13:59:34.863Z,100716.22
2023-10-05T14:02:38.593Z,100723.84
2023-10-05T14:05:41.722Z,100714.16
2023-10-05T14:08:47.574Z,100711.84
2023-10-05T14:11:50.763Z,100712.84
2023-10-05T14:14:54.018Z,100711.63
2023-10-05T14:17:58.064Z,100705.31
2023-10-05T14:21:04.105Z,100701.56
2023-10-05T14:24:07.420Z,100703.56
2023-10-05T14:27:09.918Z,100703.34
2023-10-05T14:30:18.062Z,100693.03
2023-10-05T14:33:24.289Z,100697.09
2023-10-05T14:36:31.597Z,100697.00
2023-10-05T14:39:35.572Z,100692.47
2023-10-05T14:42:40.073Z,100690.63
2023-10-05T14:45:49.434Z,100695.22
2023-10-05T14:48:52.342Z,100686.84
2023-10-05T14:51:54.862Z,100686.03
2023-10-05T14:54:58.622Z,100692.53
2023-10-05T14:58:08.888Z,100688.53
2023-10-05T15:01:15.001Z,100687.53
2023-10-05T15:04:21.205Z,100687.87
2023-10-05T15:07:24.366Z,100687.16
2023-10-05T15:10:28.929Z,100683.44
2023-10-05T15:13:32.246Z,100684.13
2023-10-05T15:16:35.566Z,100691.66
2023-10-05T15:19:40.710Z,100687.78
2023-10-05T15:22:44.397Z,100682.66
2023-10-05T15:25:49.866Z,100677.44
2023-10-05T15:28:52.866Z,100682.47
2023-10-05T15:31:56.049Z,100680.69
2023-10-05T15:34:58.537Z,100677.81
2023-10-05T15:38:01.649Z,100676.78
2023-10-05T15:41:05.241Z,100681.50
2023-10-05T15:44:09.230Z,100687.06
2023-10-05T15:47:12.346Z,100682.16
2023-10-05T15:50:17.004Z,100685.88
2023-10-05T15:53:19.696Z,100678.84
2023-10-05T15:56:22.680Z,100694.13
2023-10-05T15:59:25.238Z,100689.91
2023-10-05T16:02:28.464Z,100687.72
2023-10-05T16:05:35.437Z,100686.03
2023-10-05T16:08:38.225Z,100679.81
2023-10-05T16:11:42.293Z,100679.12
2023-10-05T16:14:45.113Z,100684.19
2023-10-05T16:17:49.292Z,100689.19
2023-10-05T16:20:52.084Z,100690.16
2023-10-05T16:23:55.054Z,100689.00
2023-10-05T16:26:57.681Z,100687.00
2023-10-05T16:30:00.465Z,100685.00
2023-10-05T16:33:03.306Z,100683.16
2023-10-05T16:36:07.010Z,100687.66
2023-10-05T16:39:12.832Z,100686.25
2023-10-05T16:42:17.847Z,100690.56
2023-10-05T16:45:22.613Z,100685.47
2023-10-05T16:48:25.673Z,100690.56
2023-10-05T16:51:32.479Z,100696.47
2023-10-05T16:54:40.316Z,100699.72
2023-10-05T16:57:46.575Z,100694.00
2023-10-05T17:00:52.945Z,100703.16
2023-10-05T17:03:56.605Z,100710.94
2023-10-05T17:06:59.662Z,100710.06
2023-10-05T17:10:02.249Z,100702.44
2023-10-05T17:13:05.294Z,100699.53
2023-10-05T17:16:09.833Z,100706.69
2023-10-05T17:19:16.002Z,100709.78
2023-10-05T17:22:18.691Z,100709.25
2023-10-05T17:25:23.018Z,100721.53
2023-10-05T17:28:28.710Z,100713.28
2023-10-05T17:31:33.309Z,100717.16
2023-10-05T17:34:35.833Z,100715.09
2023-10-05T17:37:38.714Z,100719.66
2023-10-05T17:40:41.495Z,100721.56
2023-10-05T17:43:44.466Z,100725.28
2023-10-05T17:46:48.156Z,100726.66
2023-10-05T17:49:52.745Z,100726.78
2023-10-05T17:53:00.585Z,100726.78
2023-10-05T17:56:03.672Z,100731.53
2023-10-05T17:59:06.404Z,100728.47
2023-10-05T18:02:10.553Z,100732.00
2023-10-05T18:05:16.654Z,100740.97
2023-10-05T18:08:23.364Z,100739.78
2023-10-05T18:11:26.334Z,100735.00
2023-10-05T18:14:30.328Z,100735.72
2023-10-05T18:17:36.808Z,100733.41
2023-10-05T18:20:45.733Z,100739.66
2023-10-05T18:23:52.142Z,100740.03
2023-10-05T18:26:54.669Z,100737.28
2023-10-05T18:29:59.220Z,100737.59
2023-10-05T18:33:02.769Z,100744.59
2023-10-05T18:36:07.637Z,100745.59
2023-10-05T18:39:15.034Z,100750.38
2023-10-05T18:42:19.994Z,100745.81
2023-10-05T18:45:22.528Z,100754.69
2023-10-05T18:48:27.641Z,100757.19
2023-10-05T18:51:30.722Z,100756.63
2023-10-05T18:54:33.895Z,100763.47
2023-10-05T18:57:37.313Z,100763.09
2023-10-05T19:00:40.869Z,100769.72
2023-10-05T19:03:46.963Z,100773.97
2023-10-05T19:06:50.379Z,100777.50
2023-10-05T19:09:53.996Z,100777.81
2023-10-05T19:12:59.078Z,100775.06
2023-10-05T19:16:01.945Z,100785.72
2023-10-05T19:19:05.559Z,100775.31
2023-10-05T19:22:09.363Z,100779.87
2023-10-05T19:25:13.871Z,100776.78
2023-10-05T19:28:16.617Z,100781.59
2023-10-05T19:31:20.627Z,100786.19
2023-10-05T19:34:23.822Z,100786.94
2023-10-05T19:37:29.751Z,100788.75
2023-10-05T19:40:34.625Z,100795.06
2023-10-05T19:43:37.570Z,100792.84
2023-10-05T19:46:41.211Z,100790.03
2023-10-05T19:49:44.236Z,100795.38
2023-10-05T19:52:47.318Z,100798.75
2023-10-05T19:55:57.624Z,100794.81
2023-10-05T19:59:04.725Z,100796.19
2023-10-05T20:02:07.670Z,100800.81
2023-10-05T20:05:10.805Z,100801.53
2023-10-05T20:08:14.871Z,100798.97
2023-10-05T20:11:17.637Z,100806.56
2023-10-05T20:14:22.452Z,100806.84
2023-10-05T20:17:25.378Z,100810.06
2023-10-05T20:20:30.427Z,100813.34
2023-10-05T20:23:33.264Z,100805.84
2023-10-05T20:26:36.867Z,100806.31
2023-10-05T20:29:39.705Z,100806.31
2023-10-05T20:32:42.221Z,100798.34
2023-10-05T20:35:44.984Z,100805.63
2023-10-05T20:38:47.560Z,100803.97
2023-10-05T20:41:55.511Z,100805.22
2023-10-05T20:44:58.380Z,100797.94
2023-10-05T20:48:04.414Z,100796.25
2023-10-05T20:51:07.066Z,100796.63
2023-10-05T20:54:10.586Z,100802.09
2023-10-05T20:57:13.178Z,100791.59
2023-10-05T21:00:16.411Z,100786.37
2023-10-05T21:03:20.844Z,100789.28
2023-10-05T21:06:23.728Z,100791.84
2023-10-05T21:09:26.345Z,100787.38
2023-10-05T21:12:29.176Z,100789.63
2023-10-05T21:15:31.684Z,100789.09
2023-10-05T21:18:34.621Z,100791.84
2023-10-05T21:21:37.698Z,100782.69
2023-10-05T21:24:40.966Z,100782.81
2023-10-05T21:27:43.620Z,100784.81
2023-10-05T21:30:46.823Z,100776.25
2023-10-05T21:33:49.591Z,100782.53
2023-10-05T21:36:52.364Z,100768.81
2023-10-05T21:39:54.854Z,100770.47
2023-10-05T21:42:58.528Z,100777.19
2023-10-05T21:46:01.223Z,100775.50
2023-10-05T21:49:04.941Z,100775.97
2023-10-05T21:52:08.302Z,100777.91
2023-10-05T21:55:12.005Z,100783.53
2023-10-05T21:58:14.634Z,100777.22
2023-10-05T22:01:24.821Z,100781.75
2023-10-05T22:04:27.780Z,100779.00
2023-10-05T22:07:30.544Z,100778.06
2023-10-05T22:10:37.520Z,100782.13
2023-10-05T22:13:40.667Z,100787.97
2023-10-05T22:16:43.627Z,100790.63
2023-10-05T22:19:46.517Z,100796.75
2023-10-05T22:22:49.405Z,100787.62
2023-10-05T22:25:52.556Z,100804.53
2023-10-05T22:28:55.460Z,100806.19
2023-10-05T22:31:58.139Z,100798.81
2023-10-05T22:35:01.073Z,100799.00
2023-10-05T22:38:04.393Z,100799.44
2023-10-05T22:41:10.239Z,100810.81
2023-10-05T22:44:12.990Z,100802.53
2023-10-05T22:47:15.856Z,100805.03
2023-10-05T22:50:18.452Z,100807.69
2023-10-05T22:53:21.243Z,100809.06
2023-10-05T22:56:23.771Z,100813.47
2023-10-05T22:59:26.803Z,100825.28
2023-10-05T23:02:29.562Z,100819.75
2023-10-05T23:05:33.574Z,100825.69
2023-10-05T23:08:36.916Z,100822.19
2023-10-05T23:11:40.656Z,100827.50
2023-10-05T23:14:51.068Z,100834.78
2023-10-05T23:17:54.023Z,100837.94
2023-10-05T23:20:57.643Z,100842.88
2023-10-05T23:24:00.627Z,100840.13
2023-10-05T23:27:05.472Z,100829.38
2023-10-05T23:30:09.118Z,100834.34
2023-10-05T23:33:11.694Z,100833.63
2023-10-05T23:36:19.161Z,100835.06
2023-10-05T23:39:24.913Z,100830.75
2023-10-05T23:42:31.952Z,100833.22
2023-10-05T23:45:36.064Z,100824.91
2023-10-05T23:48:40.282Z,100835.50
2023-10-05T23:51:46.061Z,100832.25
2023-10-05T23:54:48.992Z,100843.44
2023-10-05T23:57:52.991Z,100847.06
